Time;durP1;ratioP1;P1;durP2;ratioP2;P2;SDS_P1;SDS_P2;PMS_P1;PMS_P2;Temp;Humidity;BMP_temperature;BMP_pressure;BME280_temperature;BME280_humidity;BME280_pressure;Samples;Min_cycle;Max_cycle;Signal;HPM_P1;HPM_P2
2021/12/22 00:01:17;;;;;;;17.83;12.17;;;-4.30;1.00;;;;;;5082216;28;20825;-62
2021/12/22 00:03:47;;;;;;;18.73;13.00;;;-4.20;1.00;;;;;;5083142;28;20502;-62
2021/12/22 00:06:22;;;;;;;15.43;11.13;;;-4.30;1.00;;;;;;5082073;28;20465;-62
2021/12/22 00:08:54;;;;;;;18.60;12.43;;;-4.40;1.00;;;;;;5082937;28;20512;-62
2021/12/22 00:11:21;;;;;;;18.87;12.07;;;-4.40;1.00;;;;;;5081735;28;20464;-62
2021/12/22 00:13:50;;;;;;;18.67;12.53;;;-4.50;99.90;;;;;;5082786;28;20812;-61
2021/12/22 00:16:17;;;;;;;20.90;14.10;;;-4.60;40.40;;;;;;5082521;28;20469;-62
2021/12/22 00:18:45;;;;;;;33.13;14.00;;;-4.60;99.90;;;;;;5082286;28;20468;-62
2021/12/22 00:21:12;;;;;;;22.30;12.90;;;-4.40;99.90;;;;;;5082255;28;20472;-62
2021/12/22 00:23:39;;;;;;;17.37;11.50;;;-4.50;24.00;;;;;;5082097;28;20463;-62
2021/12/22 00:26:06;;;;;;;17.70;10.57;;;-4.40;99.90;;;;;;5082283;28;20814;-62
2021/12/22 00:28:33;;;;;;;13.90;10.10;;;-4.40;1.00;;;;;;5081688;28;20954;-62
2021/12/22 00:31:10;;;;;;;12.30;8.73;;;-4.30;20.30;;;;;;5081899;28;20463;-62
2021/12/22 00:33:47;;;;;;;10.63;7.37;;;-4.10;99.90;;;;;;5081307;28;20520;-62
2021/12/22 00:36:15;;;;;;;12.00;7.60;;;-4.00;99.90;;;;;;5081789;28;20733;-62
2021/12/22 00:38:45;;;;;;;9.73;7.43;;;-4.00;1.00;;;;;;5081729;28;20905;-62
2021/12/22 00:41:12;;;;;;;10.50;7.20;;;-3.90;1.00;;;;;;5081753;28;20900;-62
2021/12/22 00:43:43;;;;;;;7.40;6.17;;;-3.90;99.90;;;;;;5079812;28;20436;-62
2021/12/22 00:46:12;;;;;;;7.40;5.87;;;-3.80;1.00;;;;;;5079327;28;20468;-62
2021/12/22 00:48:40;;;;;;;8.70;5.90;;;-3.70;1.00;;;;;;5078332;28;20950;-61
2021/12/22 00:51:07;;;;;;;7.27;5.00;;;-3.70;1.00;;;;;;5078277;28;20464;-62
2021/12/22 00:53:37;;;;;;;6.20;4.80;;;-3.60;1.00;;;;;;5078658;28;20523;-62
2021/12/22 00:56:07;;;;;;;6.00;4.90;;;-3.60;99.90;;;;;;5077852;28;20469;-60
2021/12/22 00:58:36;;;;;;;7.00;4.70;;;-3.60;99.90;;;;;;5078163;28;20947;-60
2021/12/22 01:01:04;;;;;;;7.03;4.70;;;-3.70;1.00;;;;;;5078310;28;20514;-60
2021/12/22 01:03:34;;;;;;;9.30;5.00;;;-3.70;99.90;;;;;;5077517;28;20478;-62
2021/12/22 01:06:02;;;;;;;7.13;4.63;;;-3.70;36.10;;;;;;5078652;28;20832;-58
2021/12/22 01:08:29;;;;;;;7.40;3.87;;;-3.80;1.00;;;;;;5078364;28;20888;-62
2021/12/22 01:10:56;;;;;;;5.70;4.20;;;-3.70;1.00;;;;;;5078385;28;20497;-61
2021/12/22 01:13:23;;;;;;;6.87;4.63;;;-3.70;1.00;;;;;;5077397;28;20521;-62
2021/12/22 01:15:50;;;;;;;4.60;4.20;;;-3.80;1.00;;;;;;5078406;28;20527;-62
2021/12/22 01:18:29;;;;;;;6.57;4.47;;;-3.90;1.00;;;;;;5078009;28;20941;-60
2021/12/22 01:21:06;;;;;;;6.87;5.07;;;-3.90;1.00;;;;;;5078875;28;20460;-61
2021/12/22 01:23:37;;;;;;;6.10;4.63;;;-4.00;1.00;;;;;;5077633;28;20476;-58
2021/12/22 01:26:05;;;;;;;6.33;4.53;;;-4.10;1.00;;;;;;5078372;28;20471;-61
2021/12/22 01:28:40;;;;;;;7.93;4.60;;;-4.10;1.00;;;;;;5077676;28;20495;-62
2021/12/22 01:31:13;;;;;;;8.33;5.30;;;-4.00;99.90;;;;;;5078084;28;20495;-62
2021/12/22 01:33:40;;;;;;;6.37;4.73;;;-3.90;99.90;;;;;;5077554;28;20469;-62
2021/12/22 01:36:09;;;;;;;6.30;5.20;;;-4.00;99.90;;;;;;5058307;28;20470;-60
2021/12/22 01:38:36;;;;;;;7.83;5.30;;;-4.10;1.00;;;;;;5072468;28;20515;-61
2021/12/22 01:41:03;;;;;;;8.97;5.40;;;-4.00;99.90;;;;;;5077079;28;20974;-62
2021/12/22 01:43:30;;;;;;;7.10;5.07;;;-4.10;99.90;;;;;;5076331;28;20435;-62
2021/12/22 01:46:20;;;;;;;10.50;5.83;;;-4.00;24.90;;;;;;5077203;28;20885;-62
2021/12/22 01:51:41;;;;;;;7.03;5.43;;;-4.10;99.90;;;;;;5096622;28;20453;-60
2021/12/22 01:54:10;;;;;;;9.50;5.67;;;-4.10;99.90;;;;;;5090361;28;20457;-62
2021/12/22 01:56:37;;;;;;;16.40;5.27;;;-4.20;99.90;;;;;;5077583;28;20935;-62
2021/12/22 01:59:08;;;;;;;7.40;5.03;;;-4.10;99.90;;;;;;5080683;28;20465;-62
2021/12/22 02:01:35;;;;;;;9.53;5.93;;;-4.10;99.90;;;;;;5080692;28;20888;-62
2021/12/22 02:04:04;;;;;;;8.60;5.57;;;-4.20;96.80;;;;;;5080339;28;20464;-62
2021/12/22 02:06:31;;;;;;;9.97;5.50;;;-4.20;99.90;;;;;;5079337;28;20558;-62
2021/12/22 02:08:59;;;;;;;9.53;5.30;;;-4.30;99.90;;;;;;5080082;28;20482;-62
2021/12/22 02:11:27;;;;;;;5.93;4.30;;;-4.30;99.90;;;;;;5080918;28;20460;-62
2021/12/22 02:13:59;;;;;;;6.57;4.50;;;-4.30;99.90;;;;;;5080390;28;20461;-62
2021/12/22 02:16:31;;;;;;;7.80;4.50;;;-4.30;1.00;;;;;;5079408;28;20536;-62
2021/12/22 02:19:00;;;;;;;9.63;4.63;;;-4.20;99.90;;;;;;5080536;28;20833;-62
2021/12/22 02:21:33;;;;;;;7.80;4.30;;;-4.10;1.00;;;;;;5080491;28;20808;-62
2021/12/22 02:24:00;;;;;;;7.90;4.50;;;-4.10;99.90;;;;;;5080218;28;20450;-62
2021/12/22 02:26:34;;;;;;;5.73;4.20;;;-4.00;99.90;;;;;;5079416;28;20479;-62
2021/12/22 02:29:05;;;;;;;7.73;4.43;;;-4.00;1.00;;;;;;5080072;28;20736;-62
2021/12/22 02:31:43;;;;;;;5.20;3.83;;;-3.90;94.90;;;;;;5080473;28;20538;-62
2021/12/22 02:34:14;;;;;;;5.77;4.50;;;-4.00;1.00;;;;;;5080814;28;20464;-62
2021/12/22 02:36:43;;;;;;;5.37;4.10;;;-4.00;99.90;;;;;;5080247;28;20915;-62
2021/12/22 02:39:12;;;;;;;4.53;3.90;;;-4.10;99.90;;;;;;5079371;28;20733;-62
2021/12/22 02:41:39;;;;;;;7.20;3.93;;;-4.00;1.00;;;;;;5080334;28;20495;-62
2021/12/22 02:44:10;;;;;;;8.67;4.73;;;-4.00;99.90;;;;;;5080203;28;20487;-62
2021/12/22 02:46:39;;;;;;;4.80;3.57;;;-3.90;99.90;;;;;;5079576;28;20475;-62
2021/12/22 02:49:09;;;;;;;6.47;4.23;;;-4.00;1.00;;;;;;5092463;28;20463;-62
2021/12/22 02:51:36;;;;;;;6.33;3.67;;;-3.90;1.00;;;;;;5080614;28;20563;-62
2021/12/22 02:54:11;;;;;;;5.13;3.90;;;-4.00;99.90;;;;;;5080067;28;20911;-62
2021/12/22 02:56:51;;;;;;;4.23;3.80;;;-3.90;1.00;;;;;;5080500;28;20492;-62
2021/12/22 02:59:40;;;;;;;5.40;3.93;;;-3.80;1.00;;;;;;5080299;28;20756;-62
2021/12/22 03:02:24;;;;;;;9.43;5.67;;;-3.80;17.60;;;;;;5060335;28;20465;-62
2021/12/22 03:04:57;;;;;;;5.47;4.50;;;-3.90;1.00;;;;;;5067078;28;20442;-62
2021/12/22 03:07:27;;;;;;;7.23;4.87;;;-4.10;1.00;;;;;;5079906;28;20815;-62
2021/12/22 03:10:00;;;;;;;5.80;4.80;;;-4.10;99.90;;;;;;5079463;28;20825;-62
2021/12/22 03:12:35;;;;;;;8.83;4.27;;;-4.00;1.00;;;;;;5059615;28;20671;-62
2021/12/22 03:15:05;;;;;;;5.00;3.93;;;-3.90;99.90;;;;;;5065502;28;20767;-62
2021/12/22 03:17:32;;;;;;;7.23;4.30;;;-3.80;1.00;;;;;;5080317;28;20457;-62
2021/12/22 03:19:59;;;;;;;6.87;4.40;;;-3.80;99.90;;;;;;5083586;28;20519;-62
2021/12/22 03:22:26;;;;;;;6.70;3.77;;;-3.70;1.00;;;;;;5083021;28;20525;-62
2021/12/22 03:24:53;;;;;;;6.07;3.20;;;-3.60;1.00;;;;;;5083592;28;20522;-62
2021/12/22 03:27:24;;;;;;;7.50;3.83;;;-3.60;22.30;;;;;;5083746;28;20436;-62
2021/12/22 03:29:52;;;;;;;6.83;3.70;;;-3.40;99.90;;;;;;5083853;28;20503;-62
2021/12/22 03:32:19;;;;;;;4.40;3.47;;;-3.50;1.00;;;;;;5083019;28;20514;-62
2021/12/22 03:34:46;;;;;;;5.53;4.20;;;-3.40;1.00;;;;;;5083262;28;20535;-62
2021/12/22 03:37:13;;;;;;;6.97;3.70;;;-3.40;99.90;;;;;;5083341;28;20460;-62
2021/12/22 03:39:41;;;;;;;6.17;4.70;;;-3.20;1.00;;;;;;5084245;28;20881;-62
2021/12/22 03:42:09;;;;;;;6.80;4.10;;;-3.30;31.90;;;;;;5082936;28;20461;-62
2021/12/22 03:44:37;;;;;;;7.00;4.17;;;-3.10;99.90;;;;;;5083644;28;20523;-62
2021/12/22 03:47:06;;;;;;;6.53;3.80;;;-3.10;1.00;;;;;;5083162;28;20472;-62
2021/12/22 03:49:34;;;;;;;6.17;4.00;;;-3.10;1.00;;;;;;5083728;28;20461;-62
2021/12/22 03:52:01;;;;;;;7.20;3.80;;;-2.80;1.00;;;;;;5082548;28;20518;-62
2021/12/22 03:54:27;;;;;;;7.37;4.50;;;-2.80;17.90;;;;;;5082332;28;20464;-62
2021/12/22 03:56:55;;;;;;;6.67;4.33;;;-3.10;1.00;;;;;;5082614;28;20503;-62
2021/12/22 03:59:23;;;;;;;5.97;4.13;;;-3.10;99.90;;;;;;5081505;28;20471;-62
2021/12/22 04:01:52;;;;;;;6.73;3.80;;;-3.10;99.90;;;;;;5080048;28;20462;-62
2021/12/22 04:04:20;;;;;;;7.50;3.70;;;-3.10;93.30;;;;;;5078900;28;20462;-62
2021/12/22 04:06:48;;;;;;;6.50;3.57;;;-3.20;1.00;;;;;;5079471;28;20501;-62
2021/12/22 04:09:16;;;;;;;6.43;3.80;;;-3.10;1.00;;;;;;5079755;28;20465;-62
2021/12/22 04:11:44;;;;;;;5.03;3.60;;;-3.10;18.40;;;;;;5079926;28;20547;-62
2021/12/22 04:14:12;;;;;;;7.07;4.40;;;-3.20;1.00;;;;;;5079181;28;20530;-61
2021/12/22 04:16:39;;;;;;;4.40;3.63;;;-3.30;24.90;;;;;;5079468;28;20461;-62
2021/12/22 04:19:07;;;;;;;3.83;3.37;;;-3.10;99.90;;;;;;5079506;28;20510;-62
2021/12/22 04:21:35;;;;;;;3.73;3.20;;;-3.00;99.90;;;;;;5079777;28;20462;-62
2021/12/22 04:24:07;;;;;;;6.13;3.33;;;-2.80;99.90;;;;;;5078893;28;20578;-62
2021/12/22 04:26:34;;;;;;;13.83;4.17;;;-2.80;99.90;;;;;;5079834;28;20465;-61
2021/12/22 04:29:01;;;;;;;4.20;3.60;;;-2.80;1.00;;;;;;5078886;28;20462;-61
2021/12/22 04:31:28;;;;;;;8.50;3.40;;;-2.90;1.00;;;;;;5078921;28;20499;-62
2021/12/22 04:33:55;;;;;;;6.27;3.63;;;-2.80;1.00;;;;;;5078634;28;20465;-62
2021/12/22 04:36:24;;;;;;;7.90;4.40;;;-2.80;1.00;;;;;;5079144;28;20823;-60
2021/12/22 04:38:51;;;;;;;3.93;3.10;;;-2.90;1.00;;;;;;5078976;28;20461;-62
2021/12/22 04:41:18;;;;;;;4.90;3.63;;;-2.80;1.00;;;;;;5078880;28;20748;-62
2021/12/22 04:43:45;;;;;;;5.63;3.73;;;-2.90;99.90;;;;;;5079064;28;20510;-62
2021/12/22 04:46:12;;;;;;;5.33;4.00;;;-2.90;99.90;;;;;;5078297;28;20469;-62
2021/12/22 04:48:39;;;;;;;4.73;4.20;;;-2.90;99.90;;;;;;5078626;28;20470;-59
2021/12/22 04:51:13;;;;;;;9.20;4.77;;;-2.90;99.90;;;;;;5078447;28;20493;-62
2021/12/22 04:53:51;;;;;;;8.50;4.10;;;-2.90;99.90;;;;;;5078919;28;20548;-62
2021/12/22 04:56:18;;;;;;;8.00;4.30;;;-2.90;99.90;;;;;;5077747;28;20489;-62
2021/12/22 04:58:45;;;;;;;7.10;4.80;;;-2.80;99.90;;;;;;5078560;28;20819;-62
2021/12/22 05:01:12;;;;;;;8.90;5.80;;;-2.70;99.90;;;;;;5077717;28;20513;-61
2021/12/22 05:03:41;;;;;;;7.20;5.13;;;-2.60;99.90;;;;;;5076795;28;20457;-62
2021/12/22 05:06:09;;;;;;;8.17;5.50;;;-2.60;64.70;;;;;;5075510;28;20527;-62
2021/12/22 05:08:36;;;;;;;7.10;4.50;;;-2.60;1.00;;;;;;5074411;28;20449;-62
2021/12/22 05:11:04;;;;;;;6.90;3.93;;;-2.80;1.00;;;;;;5077109;28;20775;-62
2021/12/22 05:13:34;;;;;;;3.80;3.40;;;-2.70;1.00;;;;;;5076776;28;20881;-62
2021/12/22 05:16:03;;;;;;;5.23;3.53;;;-2.80;1.00;;;;;;5076388;28;20919;-62
2021/12/22 05:21:11;;;;;;;4.83;3.23;;;-2.80;1.00;;;;;;5076974;28;20869;-60
2021/12/22 05:23:38;;;;;;;9.30;4.67;;;-2.90;1.00;;;;;;5077844;28;20916;-62
2021/12/22 05:26:06;;;;;;;7.30;4.50;;;-2.90;1.00;;;;;;5077320;28;20518;-62
2021/12/22 05:28:34;;;;;;;6.60;4.80;;;-2.90;1.00;;;;;;5077500;28;20514;-62
2021/12/22 05:31:01;;;;;;;5.87;4.73;;;-2.90;1.00;;;;;;5077110;28;20489;-62
2021/12/22 05:33:30;;;;;;;9.13;5.00;;;-2.90;1.00;;;;;;5076367;28;20458;-60
2021/12/22 05:35:58;;;;;;;8.73;5.60;;;-2.80;1.00;;;;;;5076504;28;20970;-60
2021/12/22 05:38:25;;;;;;;9.40;5.17;;;-2.80;1.00;;;;;;5076726;28;20461;-62
2021/12/22 05:40:52;;;;;;;6.00;4.60;;;-2.80;1.00;;;;;;5076590;28;20460;-62
2021/12/22 05:43:20;;;;;;;6.00;5.07;;;-2.90;1.00;;;;;;5077267;28;20461;-62
2021/12/22 05:45:47;;;;;;;7.60;4.90;;;-2.70;1.00;;;;;;5076964;28;20465;-62
2021/12/22 05:48:14;;;;;;;8.07;5.00;;;-2.80;1.00;;;;;;5076565;28;20461;-62
2021/12/22 05:50:44;;;;;;;7.63;4.37;;;-2.80;1.00;;;;;;5077381;28;20492;-62
2021/12/22 05:53:11;;;;;;;9.00;5.30;;;-2.80;1.00;;;;;;5076847;28;20447;-62
2021/12/22 05:55:38;;;;;;;7.00;4.40;;;-2.70;99.90;;;;;;5078058;28;20510;-62
2021/12/22 05:58:05;;;;;;;6.83;4.07;;;-2.60;99.90;;;;;;5076678;28;20485;-62
2021/12/22 06:00:33;;;;;;;4.73;3.67;;;-2.70;99.90;;;;;;5077927;28;20442;-62
2021/12/22 06:03:00;;;;;;;6.33;3.83;;;-2.60;99.90;;;;;;5077546;28;20526;-62
2021/12/22 06:05:27;;;;;;;5.20;4.20;;;-2.50;99.90;;;;;;5077692;28;20908;-59
2021/12/22 06:07:54;;;;;;;7.10;4.10;;;-2.50;51.50;;;;;;5076923;28;20473;-61
2021/12/22 06:10:21;;;;;;;4.33;3.80;;;-2.50;1.00;;;;;;5076421;28;20466;-63
2021/12/22 06:12:49;;;;;;;6.70;4.67;;;-2.60;1.00;;;;;;5077020;28;20457;-61
2021/12/22 06:15:16;;;;;;;8.77;5.00;;;-2.50;1.00;;;;;;5076742;28;20515;-62
2021/12/22 06:17:46;;;;;;;6.93;4.50;;;-2.60;1.00;;;;;;5077687;28;20462;-62
2021/12/22 06:20:13;;;;;;;6.23;4.33;;;-2.60;1.00;;;;;;5075997;28;20461;-62
2021/12/22 06:22:40;;;;;;;5.73;4.70;;;-2.50;1.00;;;;;;5077031;28;20472;-61
2021/12/22 06:25:11;;;;;;;8.37;4.97;;;-2.50;1.00;;;;;;5076938;28;20825;-62
2021/12/22 06:27:38;;;;;;;6.80;4.30;;;-2.50;1.00;;;;;;5077168;28;20465;-62
2021/12/22 06:30:12;;;;;;;5.43;3.87;;;-2.40;1.00;;;;;;5075008;28;20462;-61
2021/12/22 06:32:46;;;;;;;5.40;4.03;;;-2.30;1.00;;;;;;5075806;28;20481;-62
2021/12/22 06:35:13;;;;;;;8.63;4.10;;;-2.20;1.00;;;;;;5076141;28;20459;-62
2021/12/22 06:37:40;;;;;;;5.00;3.70;;;-2.20;1.00;;;;;;5076790;28;20938;-59
2021/12/22 06:40:08;;;;;;;7.30;3.87;;;-2.20;1.00;;;;;;5074679;28;20785;-63
2021/12/22 06:42:35;;;;;;;4.70;3.97;;;-2.30;1.00;;;;;;5074352;28;20457;-62
2021/12/22 06:45:02;;;;;;;6.70;4.17;;;-2.30;1.00;;;;;;5074069;28;20461;-62
2021/12/22 06:47:29;;;;;;;5.30;3.50;;;-2.30;1.00;;;;;;5074514;28;20515;-62
2021/12/22 06:49:58;;;;;;;4.70;3.67;;;-2.30;99.90;;;;;;5094890;28;20723;-62
2021/12/22 06:52:26;;;;;;;6.10;4.40;;;-2.30;99.90;;;;;;5076851;28;20489;-62
2021/12/22 06:54:53;;;;;;;6.07;4.03;;;-2.30;99.90;;;;;;5080359;28;20465;-63
2021/12/22 06:57:21;;;;;;;7.67;5.43;;;-2.30;99.90;;;;;;5079852;28;20485;-62
2021/12/22 06:59:49;;;;;;;4.07;3.30;;;-2.40;99.90;;;;;;5081110;28;20489;-62
2021/12/22 07:02:16;;;;;;;5.07;4.07;;;-2.30;99.90;;;;;;5079249;28;20871;-62
2021/12/22 07:04:46;;;;;;;4.20;3.80;;;-2.40;99.90;;;;;;5080079;28;20894;-63
2021/12/22 07:07:14;;;;;;;6.37;4.07;;;-2.30;1.00;;;;;;5081087;28;20882;-63
2021/12/22 07:09:41;;;;;;;6.23;4.30;;;-2.40;99.90;;;;;;5080947;28;20465;-62
2021/12/22 07:12:10;;;;;;;5.00;4.03;;;-2.40;99.90;;;;;;5079915;28;20563;-62
2021/12/22 07:14:38;;;;;;;6.97;4.63;;;-2.40;99.90;;;;;;5080035;28;20472;-63
2021/12/22 07:17:05;;;;;;;4.33;3.93;;;-2.50;99.90;;;;;;5079104;28;20905;-62
2021/12/22 07:19:35;;;;;;;6.03;4.33;;;-2.50;1.00;;;;;;5079582;28;20506;-62
2021/12/22 07:22:02;;;;;;;5.47;4.30;;;-2.40;1.00;;;;;;5078880;28;20890;-63
2021/12/22 07:24:30;;;;;;;5.27;4.00;;;-2.50;1.00;;;;;;5078831;28;20479;-62
2021/12/22 07:26:57;;;;;;;9.47;4.40;;;-2.50;1.00;;;;;;5076926;28;20461;-62
2021/12/22 07:29:24;;;;;;;4.60;3.77;;;-2.50;1.00;;;;;;5080457;28;20465;-58
2021/12/22 07:31:54;;;;;;;4.00;3.60;;;-2.30;1.00;;;;;;5079875;28;20494;-62
2021/12/22 07:34:28;;;;;;;5.37;3.70;;;-2.30;1.00;;;;;;5080170;28;20889;-62
2021/12/22 07:37:00;;;;;;;7.80;4.73;;;-2.30;1.00;;;;;;5079085;28;20525;-61
2021/12/22 07:39:27;;;;;;;6.97;4.00;;;-2.30;1.00;;;;;;5079998;28;20461;-60
2021/12/22 07:41:55;;;;;;;7.60;3.80;;;-2.30;1.00;;;;;;5080180;28;20732;-62
2021/12/22 07:44:31;;;;;;;4.03;3.60;;;-2.30;1.00;;;;;;5077477;28;20465;-62
2021/12/22 07:46:58;;;;;;;5.40;3.87;;;-2.40;1.00;;;;;;5079125;28;20456;-62
2021/12/22 07:49:27;;;;;;;9.03;4.50;;;-2.30;1.00;;;;;;5079867;28;20578;-62
2021/12/22 07:51:54;;;;;;;7.80;4.10;;;-2.30;1.00;;;;;;5080398;28;20488;-62
2021/12/22 07:54:24;;;;;;;7.30;5.30;;;-2.10;1.00;;;;;;5077212;28;20473;-62
2021/12/22 07:56:52;;;;;;;4.90;4.13;;;-2.00;1.00;;;;;;5078097;28;20979;-62
2021/12/22 07:59:23;;;;;;;7.17;5.00;;;-1.80;1.00;;;;;;5076895;28;20456;-59
2021/12/22 08:01:50;;;;;;;8.57;4.40;;;-1.70;1.00;;;;;;5079365;28;20505;-62
2021/12/22 08:04:22;;;;;;;5.90;4.10;;;-1.60;1.00;;;;;;5077899;28;20465;-62
2021/12/22 08:06:50;;;;;;;5.80;4.67;;;-1.50;99.90;;;;;;5078437;28;20461;-62
2021/12/22 08:09:17;;;;;;;5.77;4.57;;;-1.40;99.90;;;;;;5076126;28;20469;-62
2021/12/22 08:11:44;;;;;;;5.10;4.43;;;-1.30;99.90;;;;;;5078250;28;20477;-62
2021/12/22 08:14:11;;;;;;;9.50;5.27;;;-1.20;99.90;;;;;;5078760;28;20947;-62
2021/12/22 08:16:42;;;;;;;9.60;5.00;;;-1.10;99.90;;;;;;5078714;28;20767;-61
2021/12/22 08:19:09;;;;;;;6.70;4.90;;;-1.00;99.90;;;;;;5075741;28;20515;-61
2021/12/22 08:21:36;;;;;;;11.57;5.20;;;-0.90;99.90;;;;;;5078479;28;20507;-62
2021/12/22 08:24:04;;;;;;;11.77;5.00;;;-0.70;99.90;;;;;;5078184;28;20518;-62
2021/12/22 08:26:32;;;;;;;8.40;5.33;;;-0.60;99.90;;;;;;5078507;28;20512;-62
2021/12/22 08:29:01;;;;;;;19.53;9.30;;;-0.50;73.50;;;;;;5078993;28;20465;-61
2021/12/22 08:31:28;;;;;;;12.03;6.67;;;-0.50;60.90;;;;;;5078781;28;20539;-62
2021/12/22 08:33:57;;;;;;;22.93;10.90;;;-0.40;24.50;;;;;;5079375;28;20467;-60
2021/12/22 08:39:08;;;;;;;6.87;6.13;;;-0.30;1.00;;;;;;5077681;28;20442;-60
2021/12/22 08:41:39;;;;;;;7.27;5.63;;;-0.20;1.00;;;;;;5077787;28;20467;-62
2021/12/22 08:44:12;;;;;;;17.70;10.63;;;-0.20;1.00;;;;;;5078607;28;20754;-61
2021/12/22 08:46:43;;;;;;;7.37;5.90;;;-0.20;1.00;;;;;;5077314;28;20459;-60
2021/12/22 08:49:12;;;;;;;19.43;9.10;;;-0.10;1.00;;;;;;5078701;28;20497;-60
2021/12/22 08:51:39;;;;;;;7.47;5.50;;;-0.10;1.00;;;;;;5077571;28;20549;-61
2021/12/22 08:54:06;;;;;;;11.17;6.63;;;0.00;1.00;;;;;;5078853;28;20524;-61
2021/12/22 08:56:33;;;;;;;8.17;5.27;;;0.00;1.00;;;;;;5077931;28;20851;-61
2021/12/22 08:59:12;;;;;;;12.90;7.93;;;0.00;1.00;;;;;;5078090;28;20471;-61
2021/12/22 09:01:39;;;;;;;10.93;6.73;;;0.00;1.00;;;;;;5073259;28;20505;-61
2021/12/22 09:04:11;;;;;;;5.93;5.33;;;0.10;1.00;;;;;;5078439;28;20444;-61
2021/12/22 09:06:44;;;;;;;14.73;9.20;;;0.10;1.00;;;;;;5078556;28;20830;-61
2021/12/22 09:09:11;;;;;;;23.53;11.73;;;0.20;1.00;;;;;;5078675;28;20816;-61
2021/12/22 09:11:41;;;;;;;8.63;6.57;;;0.20;1.00;;;;;;5076560;28;20480;-61
2021/12/22 09:14:09;;;;;;;9.03;7.03;;;0.30;1.00;;;;;;5078683;28;20517;-58
2021/12/22 09:16:37;;;;;;;18.10;9.60;;;0.30;1.00;;;;;;5078175;28;20762;-61
2021/12/22 09:19:11;;;;;;;13.00;8.83;;;0.30;1.00;;;;;;5078396;28;20807;-61
2021/12/22 09:21:47;;;;;;;10.53;8.20;;;0.40;1.00;;;;;;5077937;28;20890;-58
2021/12/22 09:24:14;;;;;;;10.03;7.90;;;0.50;1.00;;;;;;5078040;28;20883;-59
2021/12/22 09:26:43;;;;;;;17.73;8.73;;;0.70;1.00;;;;;;5077217;28;20824;-60
2021/12/22 09:29:15;;;;;;;24.77;14.23;;;0.90;1.00;;;;;;5077778;28;20540;-60
2021/12/22 09:31:42;;;;;;;10.67;6.47;;;1.00;1.00;;;;;;5077334;28;20480;-58
2021/12/22 09:34:09;;;;;;;20.17;10.73;;;1.10;1.00;;;;;;5077620;28;20473;-61
2021/12/22 09:36:37;;;;;;;18.17;11.80;;;1.20;1.00;;;;;;5077327;28;20469;-61
2021/12/22 09:39:12;;;;;;;23.23;12.73;;;1.50;1.00;;;;;;5078085;28;20844;-61
2021/12/22 09:41:39;;;;;;;13.43;9.40;;;1.50;1.00;;;;;;5077753;28;20464;-59
2021/12/22 09:44:10;;;;;;;17.50;11.13;;;1.50;1.00;;;;;;5077431;28;20462;-60
2021/12/22 09:46:39;;;;;;;20.67;11.33;;;1.50;1.00;;;;;;5077121;28;20523;-61
2021/12/22 09:49:20;;;;;;;10.27;7.30;;;1.60;1.00;;;;;;5091298;28;20464;-59
2021/12/22 09:54:34;;;;;;;11.20;8.40;;;1.70;1.00;;;;;;5077146;28;20939;-61
2021/12/22 09:57:01;;;;;;;16.73;8.80;;;1.70;1.00;;;;;;5076743;28;20489;-60
2021/12/22 09:59:29;;;;;;;11.03;7.10;;;1.60;1.00;;;;;;5077168;28;20947;-60
2021/12/22 10:01:56;;;;;;;9.93;8.03;;;1.60;1.00;;;;;;5077679;28;20463;-60
2021/12/22 10:04:24;;;;;;;8.90;7.40;;;1.60;1.00;;;;;;5076734;28;20480;-57
2021/12/22 10:06:52;;;;;;;11.30;8.67;;;1.60;1.00;;;;;;5077319;28;20467;-59
2021/12/22 10:09:24;;;;;;;11.87;7.83;;;1.70;1.00;;;;;;5076742;28;20468;-59
2021/12/22 10:11:53;;;;;;;10.50;7.30;;;1.90;1.00;;;;;;5077476;28;20587;-60
2021/12/22 10:14:26;;;;;;;15.30;7.53;;;2.10;1.00;;;;;;5076453;28;20499;-59
2021/12/22 10:16:58;;;;;;;9.93;8.00;;;2.20;1.00;;;;;;5077317;28;20475;-60
2021/12/22 10:19:29;;;;;;;10.47;7.40;;;2.30;1.00;;;;;;5076877;28;20461;-56
2021/12/22 10:22:00;;;;;;;9.50;7.60;;;2.60;1.00;;;;;;5077080;28;20461;-60
2021/12/22 10:24:38;;;;;;;11.43;7.27;;;2.80;1.00;;;;;;5076702;28;20462;-58
2021/12/22 10:27:12;;;;;;;7.70;6.83;;;3.00;1.00;;;;;;5076883;28;20461;-58
2021/12/22 10:29:40;;;;;;;8.23;7.00;;;3.10;1.00;;;;;;5077034;28;20468;-60
2021/12/22 10:32:11;;;;;;;7.60;6.10;;;3.20;1.00;;;;;;5076397;28;20975;-60
2021/12/22 10:34:58;;;;;;;7.77;6.97;;;3.20;1.00;;;;;;5076440;28;20465;-59
2021/12/22 10:37:36;;;;;;;7.50;6.53;;;3.00;1.00;;;;;;5076890;28;20523;-58
2021/12/22 10:40:22;;;;;;;11.77;8.20;;;2.80;1.00;;;;;;5075900;28;20515;-60
2021/12/22 10:42:55;;;;;;;10.40;8.50;;;2.50;1.00;;;;;;5075855;28;20462;-59
2021/12/22 10:45:24;;;;;;;8.53;6.87;;;2.60;1.00;;;;;;5076744;28;20461;-60
2021/12/22 10:50:39;;;;;;;8.93;6.80;;;2.60;1.00;;;;;;5096767;28;20976;-57
2021/12/22 10:53:11;;;;;;;9.50;6.40;;;2.50;1.00;;;;;;5078797;28;20552;-59
2021/12/22 10:55:41;;;;;;;9.77;6.80;;;2.40;1.00;;;;;;5076773;28;20456;-58
2021/12/22 10:58:26;;;;;;;10.53;7.40;;;2.50;1.00;;;;;;5075307;28;20493;-58
2021/12/22 11:01:10;;;;;;;9.90;6.90;;;2.60;1.00;;;;;;5076899;28;20514;-59
2021/12/22 11:03:42;;;;;;;10.10;6.60;;;2.70;1.00;;;;;;5083809;28;20952;-59
2021/12/22 11:06:16;;;;;;;10.33;7.10;;;2.70;1.00;;;;;;5088605;28;20461;-59
2021/12/22 11:08:57;;;;;;;9.37;6.67;;;2.70;1.00;;;;;;5076735;28;20733;-58
2021/12/22 11:11:26;;;;;;;10.03;7.53;;;2.70;1.00;;;;;;5073058;28;20473;-60
2021/12/22 11:14:08;;;;;;;6.83;5.53;;;2.80;1.00;;;;;;5075308;28;20965;-55
2021/12/22 11:16:56;;;;;;;7.90;6.63;;;2.70;1.00;;;;;;5076068;28;20461;-59
2021/12/22 11:19:25;;;;;;;7.37;6.13;;;2.90;1.00;;;;;;5076979;28;20546;-56
2021/12/22 11:21:59;;;;;;;7.20;6.27;;;3.00;1.00;;;;;;5076707;28;20474;-59
2021/12/22 11:24:28;;;;;;;7.80;6.20;;;3.20;1.00;;;;;;5075913;28;20795;-60
2021/12/22 11:26:59;;;;;;;7.00;6.30;;;3.30;99.90;;;;;;5076302;28;20515;-59
2021/12/22 11:29:29;;;;;;;8.73;6.60;;;3.20;99.90;;;;;;5071479;28;20739;-60
2021/12/22 11:31:56;;;;;;;8.90;6.93;;;3.10;99.90;;;;;;5076439;28;20812;-61
2021/12/22 11:34:27;;;;;;;7.17;6.10;;;3.00;99.90;;;;;;5075383;28;20469;-58
2021/12/22 11:36:54;;;;;;;9.77;7.73;;;2.80;99.90;;;;;;5076427;28;20501;-60
2021/12/22 11:39:21;;;;;;;10.50;7.77;;;2.70;99.90;;;;;;5076622;28;20515;-57
2021/12/22 11:41:59;;;;;;;7.97;7.13;;;2.80;99.90;;;;;;5079496;28;20826;-61
2021/12/22 11:44:28;;;;;;;10.10;6.90;;;3.00;99.90;;;;;;5077924;28;20461;-60
2021/12/22 11:46:57;;;;;;;11.80;8.70;;;3.20;99.90;;;;;;5058049;28;20458;-61
2021/12/22 11:49:25;;;;;;;8.73;5.97;;;3.30;99.90;;;;;;5077118;28;20495;-59
2021/12/22 11:51:56;;;;;;;8.20;6.60;;;3.30;99.90;;;;;;5079079;28;20487;-59
2021/12/22 11:54:27;;;;;;;11.50;7.70;;;3.20;99.90;;;;;;5078993;28;20485;-59
2021/12/22 11:56:59;;;;;;;8.47;7.27;;;3.20;99.90;;;;;;5078909;28;20486;-59
2021/12/22 11:59:37;;;;;;;7.10;6.20;;;3.20;99.90;;;;;;5078584;28;20803;-60
2021/12/22 12:02:22;;;;;;;6.03;5.50;;;3.30;99.90;;;;;;5072948;28;20490;-60
2021/12/22 12:04:53;;;;;;;6.97;6.27;;;3.10;99.90;;;;;;5064110;28;20461;-56
2021/12/22 12:07:45;;;;;;;7.30;6.57;;;3.10;99.90;;;;;;5078964;28;20473;-61
2021/12/22 12:10:40;;;;;;;6.17;5.57;;;3.20;99.90;;;;;;5078830;28;20465;-61
2021/12/22 12:13:15;;;;;;;6.37;5.73;;;3.20;99.90;;;;;;5083347;28;20480;-60
2021/12/22 12:22:35;;;;;;;7.30;5.63;;;3.40;99.90;;;;;;5079051;28;20543;-58
2021/12/22 12:25:11;;;;;;;7.47;6.07;;;3.50;99.90;;;;;;5079287;28;20472;-60
2021/12/22 12:27:52;;;;;;;8.10;6.63;;;3.50;99.90;;;;;;5078664;28;20901;-61
2021/12/22 12:30:43;;;;;;;7.10;6.17;;;3.70;99.90;;;;;;5059235;28;20895;-60
2021/12/22 12:33:42;;;;;;;9.30;6.33;;;3.70;99.90;;;;;;5059082;28;20494;-60
2021/12/22 12:36:11;;;;;;;5.87;5.23;;;3.70;99.90;;;;;;5062548;28;20543;-56
2021/12/22 12:38:50;;;;;;;8.50;6.00;;;3.50;99.90;;;;;;5079107;28;20564;-61
2021/12/22 12:41:19;;;;;;;8.33;5.97;;;3.30;99.90;;;;;;5078350;28;20460;-60
2021/12/22 12:43:58;;;;;;;7.80;5.57;;;3.10;99.90;;;;;;5079234;28;20755;-60
2021/12/22 12:46:39;;;;;;;7.40;5.70;;;3.00;99.90;;;;;;5077786;28;20469;-60
2021/12/22 12:49:32;;;;;;;7.27;6.20;;;2.90;99.90;;;;;;5092517;28;20460;-61
2021/12/22 12:52:00;;;;;;;6.83;6.13;;;3.00;99.90;;;;;;5058968;28;20516;-59
2021/12/22 12:54:39;;;;;;;8.17;6.37;;;3.00;99.90;;;;;;5058833;28;20948;-60
2021/12/22 12:57:30;;;;;;;8.93;6.97;;;3.00;99.90;;;;;;5071171;28;20976;-61
2021/12/22 13:00:25;;;;;;;7.77;5.93;;;3.00;99.90;;;;;;5077451;28;20548;-58
2021/12/22 13:03:09;;;;;;;7.80;6.00;;;2.90;99.90;;;;;;5031774;28;20906;-61
2021/12/22 13:05:40;;;;;;;9.70;6.30;;;2.80;99.90;;;;;;5078405;28;20532;-61
2021/12/22 13:08:10;;;;;;;6.03;5.43;;;2.90;99.90;;;;;;5077851;28;20465;-61
2021/12/22 13:10:39;;;;;;;8.93;6.20;;;3.10;99.90;;;;;;5077332;28;20527;-61
2021/12/22 13:13:18;;;;;;;10.83;6.03;;;3.10;99.90;;;;;;5078085;28;20486;-61
2021/12/22 13:15:49;;;;;;;9.53;6.83;;;3.10;99.90;;;;;;5078715;28;20465;-61
2021/12/22 13:18:30;;;;;;;6.50;5.67;;;3.20;99.90;;;;;;5077491;28;20515;-61
2021/12/22 13:21:08;;;;;;;7.80;6.60;;;3.30;99.90;;;;;;5077672;28;20551;-61
2021/12/22 13:23:38;;;;;;;7.37;6.10;;;3.30;99.90;;;;;;5057293;28;20498;-61
2021/12/22 13:26:07;;;;;;;7.70;6.27;;;3.20;99.90;;;;;;5058429;28;20490;-61
2021/12/22 13:28:37;;;;;;;7.33;6.43;;;3.20;99.90;;;;;;5070995;28;20534;-60
2021/12/22 13:31:07;;;;;;;6.97;6.27;;;3.20;99.90;;;;;;5078206;28;20461;-61